createdAt,value
2022-11-06T00:01:54.461Z,60.40
2022-11-06T00:06:15.827Z,60.40
2022-11-06T00:10:19.313Z,60.40
2022-11-06T00:14:22.397Z,60.70
2022-11-06T00:18:27.029Z,60.80
2022-11-06T00:22:33.940Z,61.00
2022-11-06T00:26:36.833Z,61.30
2022-11-06T00:30:39.909Z,60.60
2022-11-06T00:34:42.808Z,61.50
2022-11-06T00:38:46.341Z,61.60
2022-11-06T00:42:54.335Z,61.80
2022-11-06T00:46:57.280Z,62.00
2022-11-06T00:51:05.184Z,61.90
2022-11-06T00:55:08.401Z,62.30
2022-11-06T00:59:14.377Z,62.10
2022-11-06T01:03:17.282Z,62.20
2022-11-06T01:07:20.160Z,62.10
2022-11-06T01:11:28.556Z,62.20
2022-11-06T01:15:37.290Z,62.40
2022-11-06T01:19:40.391Z,62.40
2022-11-06T01:23:44.312Z,62.50
2022-11-06T01:27:47.091Z,62.60
2022-11-06T01:31:50.601Z,62.80
2022-11-06T01:35:53.380Z,62.80
2022-11-06T01:39:56.224Z,62.60
2022-11-06T01:44:09.399Z,62.60
2022-11-06T01:48:13.982Z,62.50
2022-11-06T01:52:17.753Z,62.40
2022-11-06T01:56:21.455Z,62.10
2022-11-06T02:00:24.897Z,61.70
2022-11-06T02:04:32.897Z,61.50
2022-11-06T02:08:35.966Z,61.00
2022-11-06T02:12:59.044Z,60.50
2022-11-06T02:17:35.293Z,59.90
2022-11-06T02:22:16.333Z,59.40
2022-11-06T02:26:47.884Z,59.20
2022-11-06T02:30:53.563Z,59.20
2022-11-06T02:34:58.845Z,59.40
2022-11-06T02:39:07.876Z,59.70
2022-11-06T02:43:11.190Z,60.10
2022-11-06T02:47:16.512Z,60.40
2022-11-06T02:51:22.560Z,60.70
2022-11-06T02:55:48.703Z,61.20
2022-11-06T03:00:02.768Z,61.20
2022-11-06T03:04:14.704Z,61.80
2022-11-06T03:08:22.385Z,62.20
2022-11-06T03:12:50.036Z,62.40
2022-11-06T03:17:17.739Z,62.50
2022-11-06T03:21:27.276Z,62.30
2022-11-06T03:25:46.701Z,62.10
2022-11-06T03:30:01.305Z,62.20
2022-11-06T03:34:12.497Z,62.40
2022-11-06T03:38:29.767Z,62.00
2022-11-06T03:42:33.134Z,61.70
2022-11-06T03:46:40.824Z,61.50
2022-11-06T03:50:50.616Z,61.20
2022-11-06T03:55:05.278Z,60.70
2022-11-06T03:59:09.911Z,60.20
2022-11-06T04:03:30.240Z,60.00
2022-11-06T04:07:39.319Z,59.50
2022-11-06T04:12:03.061Z,59.30
2022-11-06T04:16:08.647Z,59.20
2022-11-06T04:20:36.397Z,59.10
2022-11-06T04:25:18.257Z,58.90
2022-11-06T04:29:31.167Z,58.90
2022-11-06T04:33:58.415Z,58.80
2022-11-06T04:38:14.809Z,58.80
2022-11-06T04:42:37.448Z,58.90
2022-11-06T04:46:49.102Z,58.70
2022-11-06T04:50:56.944Z,58.70
2022-11-06T04:55:00.027Z,58.60
2022-11-06T04:59:07.034Z,58.50
2022-11-06T05:03:09.898Z,58.60
2022-11-06T05:07:14.693Z,58.70
2022-11-06T05:11:17.823Z,58.60
2022-11-06T05:15:20.642Z,58.80
2022-11-06T05:19:23.660Z,58.80
2022-11-06T05:23:26.444Z,59.00
2022-11-06T05:27:29.286Z,59.00
2022-11-06T05:31:32.243Z,59.10
2022-11-06T05:35:35.087Z,59.00
2022-11-06T05:39:41.840Z,59.10
2022-11-06T05:43:45.057Z,59.10
2022-11-06T05:47:47.911Z,59.10
2022-11-06T05:51:54.342Z,59.10
2022-11-06T05:55:57.214Z,59.10
2022-11-06T06:00:00.160Z,59.00
2022-11-06T06:04:03.226Z,59.00
2022-11-06T06:08:06.550Z,59.00
2022-11-06T06:12:13.258Z,58.80
2022-11-06T06:16:16.179Z,58.50
2022-11-06T06:20:19.031Z,58.00
2022-11-06T06:24:21.993Z,57.80
2022-11-06T06:28:25.007Z,57.50
2022-11-06T06:32:27.991Z,57.30
2022-11-06T06:36:30.868Z,57.20
2022-11-06T06:40:33.723Z,57.20
2022-11-06T06:44:36.566Z,56.90
2022-11-06T06:48:39.377Z,57.00
2022-11-06T06:52:42.218Z,57.00
2022-11-06T06:56:45.063Z,56.90
2022-11-06T07:00:48.043Z,56.80
2022-11-06T07:04:51.762Z,56.60
2022-11-06T07:08:57.737Z,56.50
2022-11-06T07:13:05.563Z,56.00
2022-11-06T07:17:08.419Z,55.60
2022-11-06T07:21:12.855Z,55.00
2022-11-06T07:25:15.712Z,55.00
2022-11-06T07:29:19.414Z,54.70
2022-11-06T07:33:22.261Z,54.60
2022-11-06T07:37:25.110Z,54.70
2022-11-06T07:41:28.111Z,54.50
2022-11-06T07:45:30.997Z,54.10
2022-11-06T07:49:34.029Z,54.00
2022-11-06T07:53:37.470Z,53.90
2022-11-06T07:57:40.520Z,53.70
2022-11-06T08:01:43.430Z,53.50
2022-11-06T08:05:46.848Z,53.50
2022-11-06T08:09:49.702Z,53.20
2022-11-06T08:13:52.523Z,53.30
2022-11-06T08:17:55.318Z,53.00
2022-11-06T08:21:58.357Z,52.60
2022-11-06T08:26:04.423Z,52.60
2022-11-06T08:30:07.889Z,51.90
2022-11-06T08:34:10.854Z,51.80
2022-11-06T08:38:14.049Z,51.90
2022-11-06T08:42:17.135Z,51.20
2022-11-06T08:46:20.494Z,51.30
2022-11-06T08:50:23.381Z,50.90
2022-11-06T08:54:26.426Z,50.50
2022-11-06T08:58:29.379Z,50.70
2022-11-06T09:02:33.671Z,49.90
2022-11-06T09:06:36.907Z,49.80
2022-11-06T09:10:41.332Z,49.50
2022-11-06T09:14:44.253Z,49.00
2022-11-06T09:18:47.139Z,47.80
2022-11-06T09:22:50.275Z,48.20
2022-11-06T09:26:53.119Z,48.40
2022-11-06T09:30:57.459Z,47.50
2022-11-06T09:35:00.560Z,45.70
2022-11-06T09:39:03.860Z,46.10
2022-11-06T09:48:15.200Z,45.80
2022-11-06T09:52:30.109Z,45.40
2022-11-06T09:56:38.965Z,44.70
2022-11-06T10:00:42.757Z,44.10
2022-11-06T10:04:51.396Z,43.30
2022-11-06T10:08:58.593Z,43.30
2022-11-06T10:13:14.804Z,43.20
2022-11-06T10:18:09.248Z,42.50
2022-11-06T10:22:25.837Z,43.60
2022-11-06T10:26:38.296Z,42.90
2022-11-06T10:30:56.144Z,42.20
2022-11-06T10:35:17.867Z,41.60
2022-11-06T10:39:25.004Z,42.80
2022-11-06T10:43:35.856Z,41.90
2022-11-06T10:48:06.445Z,41.30
2022-11-06T10:52:24.542Z,40.50
2022-11-06T10:56:54.302Z,40.30
2022-11-06T11:01:04.708Z,39.90
2022-11-06T11:05:17.179Z,39.40
2022-11-06T11:09:29.787Z,40.80
2022-11-06T11:13:33.710Z,39.90
2022-11-06T11:17:36.879Z,38.90
2022-11-06T11:21:51.790Z,39.30
2022-11-06T11:26:12.507Z,39.30
2022-11-06T11:30:26.766Z,38.30
2022-11-06T11:34:49.196Z,38.80
2022-11-06T11:38:54.578Z,38.60
2022-11-06T11:43:22.048Z,38.30
2022-11-06T11:47:25.103Z,39.10
2022-11-06T11:51:47.901Z,39.10
2022-11-06T11:55:53.455Z,38.20
2022-11-06T12:00:06.407Z,38.50
2022-11-06T12:04:24.468Z,38.50
2022-11-06T12:08:27.386Z,38.80
2022-11-06T12:12:34.549Z,39.50
2022-11-06T12:16:37.924Z,38.40
2022-11-06T12:20:53.122Z,38.60
2022-11-06T12:25:09.055Z,39.00
2022-11-06T12:29:23.265Z,39.10
2022-11-06T12:34:03.933Z,38.90
2022-11-06T12:38:24.618Z,39.50
2022-11-06T12:42:32.309Z,39.30
2022-11-06T12:46:52.992Z,38.90
2022-11-06T12:51:26.828Z,39.20
2022-11-06T12:55:51.585Z,39.90
2022-11-06T12:59:57.496Z,40.10
2022-11-06T13:04:21.960Z,39.90
2022-11-06T13:08:51.843Z,40.00
2022-11-06T13:12:57.562Z,40.30
2022-11-06T13:17:21.814Z,40.40
2022-11-06T13:21:36.342Z,40.50
2022-11-06T13:26:22.293Z,40.10
2022-11-06T13:30:25.357Z,40.90
2022-11-06T13:34:35.999Z,40.80
2022-11-06T13:38:47.741Z,40.10
2022-11-06T13:43:23.302Z,40.30
2022-11-06T13:47:33.357Z,41.00
2022-11-06T13:51:42.683Z,40.80
2022-11-06T13:56:07.384Z,39.90
2022-11-06T14:00:42.361Z,40.60
2022-11-06T14:05:41.387Z,40.60
2022-11-06T14:09:46.448Z,40.40
2022-11-06T14:14:31.914Z,39.60
2022-11-06T14:18:35.430Z,40.80
2022-11-06T14:22:38.691Z,40.40
2022-11-06T14:26:46.856Z,40.40
2022-11-06T14:35:48.776Z,39.70
2022-11-06T14:39:51.894Z,40.10
2022-11-06T14:43:57.064Z,40.60
2022-11-06T14:48:03.594Z,40.50
2022-11-06T14:52:13.601Z,40.80
2022-11-06T14:56:27.194Z,41.10
2022-11-06T15:00:35.901Z,41.40
2022-11-06T15:04:46.064Z,40.30
2022-11-06T15:08:49.080Z,41.20
2022-11-06T15:13:22.448Z,41.20
2022-11-06T15:17:27.585Z,41.70
2022-11-06T15:21:36.070Z,42.00
2022-11-06T15:25:52.281Z,42.40
2022-11-06T15:29:59.821Z,42.90
2022-11-06T15:34:16.135Z,42.90
2022-11-06T15:38:25.256Z,43.40
2022-11-06T15:42:37.709Z,43.40
2022-11-06T15:46:53.980Z,43.50
2022-11-06T15:50:57.526Z,43.80
2022-11-06T15:55:00.483Z,43.90
2022-11-06T15:59:15.104Z,44.30
2022-11-06T16:03:23.686Z,44.40
2022-11-06T16:07:27.739Z,45.00
2022-11-06T16:11:31.762Z,45.60
2022-11-06T16:15:43.707Z,45.90
2022-11-06T16:19:48.886Z,46.00
2022-11-06T16:23:59.490Z,46.20
2022-11-06T16:28:02.392Z,46.20
2022-11-06T16:32:09.442Z,46.50
2022-11-06T16:36:13.755Z,46.60
2022-11-06T16:40:44.849Z,46.80
2022-11-06T16:44:59.331Z,47.60
2022-11-06T16:49:30.972Z,49.20
2022-11-06T16:54:03.856Z,48.90
2022-11-06T16:58:17.468Z,50.20
2022-11-06T17:02:24.152Z,50.50
2022-11-06T17:06:33.133Z,50.90
2022-11-06T17:10:43.507Z,51.60
2022-11-06T17:14:51.350Z,52.00
2022-11-06T17:18:55.081Z,52.40
2022-11-06T17:22:57.936Z,52.90
2022-11-06T17:27:00.804Z,53.30
2022-11-06T17:31:03.831Z,53.50
2022-11-06T17:35:08.781Z,53.70
2022-11-06T17:39:11.611Z,54.60
2022-11-06T17:43:14.778Z,54.60
2022-11-06T17:47:17.805Z,54.10
2022-11-06T17:51:39.439Z,54.70
2022-11-06T17:55:42.324Z,54.80
2022-11-06T17:59:45.151Z,54.50
2022-11-06T18:03:48.325Z,54.90
2022-11-06T18:07:51.276Z,55.10
2022-11-06T18:11:55.944Z,55.40
2022-11-06T18:15:59.497Z,55.40
2022-11-06T18:20:02.615Z,55.60
2022-11-06T18:24:06.349Z,55.80
2022-11-06T18:28:10.141Z,56.10
2022-11-06T18:32:13.019Z,56.00
2022-11-06T18:36:16.477Z,56.10
2022-11-06T18:40:19.426Z,56.70
2022-11-06T18:44:22.349Z,56.60
2022-11-06T18:48:25.774Z,56.90
2022-11-06T18:52:55.722Z,57.10
2022-11-06T18:56:51.792Z,57.20
2022-11-06T19:01:00.526Z,57.70
2022-11-06T19:05:04.975Z,57.90
2022-11-06T19:09:08.629Z,58.10
2022-11-06T19:13:12.219Z,58.30
2022-11-06T19:17:17.093Z,58.50
2022-11-06T19:21:20.147Z,58.90
2022-11-06T19:25:23.681Z,59.00
2022-11-06T19:29:26.729Z,59.30
2022-11-06T19:33:29.893Z,59.60
2022-11-06T19:37:32.690Z,59.80
2022-11-06T19:41:35.481Z,59.90
2022-11-06T19:45:40.138Z,60.00
2022-11-06T19:49:45.932Z,60.40
2022-11-06T19:53:53.330Z,60.40
2022-11-06T19:57:58.533Z,60.80
2022-11-06T20:02:02.992Z,60.80
2022-11-06T20:06:08.057Z,60.90
2022-11-06T20:10:12.148Z,61.00
2022-11-06T20:14:18.599Z,61.00
2022-11-06T20:18:37.407Z,61.00
2022-11-06T20:22:40.493Z,61.20
2022-11-06T20:26:47.585Z,61.30
2022-11-06T20:31:03.857Z,61.70
2022-11-06T20:35:07.518Z,61.70
2022-11-06T20:39:10.410Z,61.80
2022-11-06T20:43:13.623Z,61.80
2022-11-06T20:47:16.835Z,61.80
2022-11-06T20:51:26.032Z,61.80
2022-11-06T20:55:29.266Z,62.00
2022-11-06T20:59:32.164Z,61.90
2022-11-06T21:03:35.153Z,62.00
2022-11-06T21:07:38.021Z,62.20
2022-11-06T21:11:40.844Z,62.30
2022-11-06T21:15:43.652Z,62.30
2022-11-06T21:19:46.675Z,62.60
2022-11-06T21:23:50.353Z,62.60
2022-11-06T21:27:53.116Z,62.70
2022-11-06T21:31:56.307Z,62.60
2022-11-06T21:36:16.882Z,62.60
2022-11-06T21:40:20.199Z,63.10
2022-11-06T21:44:23.532Z,62.80
2022-11-06T21:48:45.190Z,62.90
2022-11-06T21:53:07.322Z,63.20
2022-11-06T21:57:10.160Z,63.30
2022-11-06T22:01:14.525Z,63.40
2022-11-06T22:05:18.290Z,63.50
2022-11-06T22:09:25.369Z,63.50
2022-11-06T22:13:29.561Z,63.50
2022-11-06T22:17:32.445Z,63.60
2022-11-06T22:21:37.145Z,64.00
2022-11-06T22:25:40.091Z,64.20
2022-11-06T22:29:42.973Z,64.40
2022-11-06T22:33:52.209Z,64.50
2022-11-06T22:37:56.470Z,64.60
2022-11-06T22:41:59.312Z,64.70
2022-11-06T22:46:04.869Z,64.90
2022-11-06T22:50:08.034Z,65.10
2022-11-06T22:54:11.072Z,65.00
2022-11-06T22:58:14.179Z,65.00
2022-11-06T23:02:17.098Z,65.10
2022-11-06T23:06:19.850Z,65.20
2022-11-06T23:10:32.785Z,65.10
2022-11-06T23:14:35.591Z,65.20
2022-11-06T23:18:39.003Z,65.20
2022-11-06T23:22:42.108Z,65.40
2022-11-06T23:26:45.440Z,65.40
2022-11-06T23:30:48.167Z,65.30
2022-11-06T23:34:51.428Z,65.50
2022-11-06T23:38:54.595Z,65.70
2022-11-06T23:42:57.712Z,65.60
2022-11-06T23:47:01.100Z,65.70
2022-11-06T23:51:03.985Z,65.80
2022-11-06T23:55:07.464Z,65.80
2022-11-06T23:59:10.237Z,65.80
